sensor_id;sensor_type;location;lat;lon;timestamp;pressure;altitude;pressure_sealevel;temperature;humidity
14343;BME280;7255;53.596;9.960;2023-05-11T00:01:43;101201.72;;;13.56;nan
14343;BME280;7255;53.596;9.960;2023-05-11T00:04:10;101198.09;;;13.50;nan
14343;BME280;7255;53.596;9.960;2023-05-11T00:06:37;101187.75;;;13.17;nan
14343;BME280;7255;53.596;9.960;2023-05-11T00:09:04;101189.87;;;13.15;nan
14343;BME280;7255;53.596;9.960;2023-05-11T00:11:30;101203.22;;;13.09;nan
14343;BME280;7255;53.596;9.960;2023-05-11T00:13:57;101203.78;;;13.30;nan
14343;BME280;7255;53.596;9.960;2023-05-11T00:16:23;101194.91;;;13.41;nan
14343;BME280;7255;53.596;9.960;2023-05-11T00:18:49;101202.87;;;13.36;nan
14343;BME280;7255;53.596;9.960;2023-05-11T00:21:15;101199.94;;;13.38;nan
14343;BME280;7255;53.596;9.960;2023-05-11T00:23:43;101211.12;;;13.65;nan
14343;BME280;7255;53.596;9.960;2023-05-11T00:26:09;101205.84;;;13.58;nan
14343;BME280;7255;53.596;9.960;2023-05-11T00:28:36;101204.34;;;13.74;nan
14343;BME280;7255;53.596;9.960;2023-05-11T00:31:02;101213.44;;;13.50;nan
14343;BME280;7255;53.596;9.960;2023-05-11T00:33:28;101205.78;;;13.35;nan
14343;BME280;7255;53.596;9.960;2023-05-11T00:35:54;101213.44;;;13.50;nan
14343;BME280;7255;53.596;9.960;2023-05-11T00:38:21;101205.44;;;13.01;nan
14343;BME280;7255;53.596;9.960;2023-05-11T00:40:48;101211.44;;;13.15;nan
14343;BME280;7255;53.596;9.960;2023-05-11T00:43:15;101195.34;;;13.38;nan
14343;BME280;7255;53.596;9.960;2023-05-11T00:45:41;101201.25;;;13.59;nan
14343;BME280;7255;53.596;9.960;2023-05-11T00:48:11;101194.94;;;13.65;nan
14343;BME280;7255;53.596;9.960;2023-05-11T00:50:38;101205.16;;;13.75;nan
14343;BME280;7255;53.596;9.960;2023-05-11T00:53:04;101206.31;;;13.79;nan
14343;BME280;7255;53.596;9.960;2023-05-11T00:55:31;101204.69;;;13.78;nan
14343;BME280;7255;53.596;9.960;2023-05-11T00:57:58;101199.37;;;13.71;nan
14343;BME280;7255;53.596;9.960;2023-05-11T01:00:24;101204.22;;;13.57;nan
14343;BME280;7255;53.596;9.960;2023-05-11T01:02:51;101202.31;;;13.70;nan
14343;BME280;7255;53.596;9.960;2023-05-11T01:05:18;101210.31;;;13.88;nan
14343;BME280;7255;53.596;9.960;2023-05-11T01:07:50;101204.56;;;13.84;nan
14343;BME280;7255;53.596;9.960;2023-05-11T01:10:23;101212.91;;;13.83;nan
14343;BME280;7255;53.596;9.960;2023-05-11T01:13:01;101208.31;;;13.60;nan
14343;BME280;7255;53.596;9.960;2023-05-11T01:15:32;101214.66;;;13.54;nan
14343;BME280;7255;53.596;9.960;2023-05-11T01:18:11;101213.03;;;13.76;nan
14343;BME280;7255;53.596;9.960;2023-05-11T01:20:43;101209.97;;;13.61;nan
14343;BME280;7255;53.596;9.960;2023-05-11T01:23:39;101211.84;;;13.72;nan
14343;BME280;7255;53.596;9.960;2023-05-11T01:26:13;101204.88;;;13.64;nan
14343;BME280;7255;53.596;9.960;2023-05-11T01:29:00;101217.00;;;13.62;nan
14343;BME280;7255;53.596;9.960;2023-05-11T01:31:34;101206.78;;;13.52;nan
14343;BME280;7255;53.596;9.960;2023-05-11T01:34:04;101216.06;;;13.68;nan
14343;BME280;7255;53.596;9.960;2023-05-11T01:36:33;101214.28;;;13.62;nan
14343;BME280;7255;53.596;9.960;2023-05-11T01:39:02;101211.81;;;13.48;nan
14343;BME280;7255;53.596;9.960;2023-05-11T01:41:32;101209.97;;;13.61;nan
14343;BME280;7255;53.596;9.960;2023-05-11T01:44:01;101212.19;;;13.76;nan
14343;BME280;7255;53.596;9.960;2023-05-11T01:46:31;101214.88;;;13.64;nan
14343;BME280;7255;53.596;9.960;2023-05-11T01:49:01;101224.28;;;13.73;nan
14343;BME280;7255;53.596;9.960;2023-05-11T01:51:30;101224.97;;;13.57;nan
14343;BME280;7255;53.596;9.960;2023-05-11T01:53:58;101226.50;;;13.64;nan
14343;BME280;7255;53.596;9.960;2023-05-11T01:56:26;101230.53;;;13.74;nan
14343;BME280;7255;53.596;9.960;2023-05-11T01:58:54;101232.50;;;13.78;nan
14343;BME280;7255;53.596;9.960;2023-05-11T02:01:23;101231.47;;;13.79;nan
14343;BME280;7255;53.596;9.960;2023-05-11T02:03:50;101239.78;;;13.90;nan
14343;BME280;7255;53.596;9.960;2023-05-11T02:06:19;101244.72;;;13.69;nan
14343;BME280;7255;53.596;9.960;2023-05-11T02:08:47;101239.56;;;13.79;nan
14343;BME280;7255;53.596;9.960;2023-05-11T02:11:15;101244.47;;;13.82;nan
14343;BME280;7255;53.596;9.960;2023-05-11T02:13:43;101243.53;;;13.65;nan
14343;BME280;7255;53.596;9.960;2023-05-11T02:16:11;101242.38;;;13.61;nan
14343;BME280;7255;53.596;9.960;2023-05-11T02:18:39;101246.50;;;13.33;nan
14343;BME280;7255;53.596;9.960;2023-05-11T02:21:07;101248.16;;;13.34;nan
14343;BME280;7255;53.596;9.960;2023-05-11T02:23:36;101246.22;;;13.23;nan
14343;BME280;7255;53.596;9.960;2023-05-11T02:26:05;101248.06;;;13.41;nan
14343;BME280;7255;53.596;9.960;2023-05-11T02:28:32;101228.09;;;13.42;nan
14343;BME280;7255;53.596;9.960;2023-05-11T02:31:01;101237.25;;;13.10;nan
14343;BME280;7255;53.596;9.960;2023-05-11T02:33:33;101245.84;;;13.19;nan
14343;BME280;7255;53.596;9.960;2023-05-11T02:36:01;101258.50;;;13.37;nan
14343;BME280;7255;53.596;9.960;2023-05-11T02:38:30;101248.88;;;13.41;nan
14343;BME280;7255;53.596;9.960;2023-05-11T02:41:03;101248.03;;;13.10;nan
14343;BME280;7255;53.596;9.960;2023-05-11T02:43:32;101244.94;;;12.95;nan
14343;BME280;7255;53.596;9.960;2023-05-11T02:46:02;101249.03;;;12.98;nan
14343;BME280;7255;53.596;9.960;2023-05-11T02:48:33;101253.87;;;13.07;nan
14343;BME280;7255;53.596;9.960;2023-05-11T02:51:05;101248.59;;;13.01;nan
14343;BME280;7255;53.596;9.960;2023-05-11T02:53:33;101248.22;;;12.97;nan
14343;BME280;7255;53.596;9.960;2023-05-11T02:56:02;101248.03;;;13.10;nan
14343;BME280;7255;53.596;9.960;2023-05-11T02:58:29;101259.12;;;13.21;nan
14343;BME280;7255;53.596;9.960;2023-05-11T03:00:57;101249.69;;;13.12;nan
14343;BME280;7255;53.596;9.960;2023-05-11T03:03:24;101247.69;;;13.07;nan
14343;BME280;7255;53.596;9.960;2023-05-11T03:05:50;101254.50;;;12.91;nan
14343;BME280;7255;53.596;9.960;2023-05-11T03:08:16;101255.53;;;13.08;nan
14343;BME280;7255;53.596;9.960;2023-05-11T03:10:44;101259.12;;;13.21;nan
14343;BME280;7255;53.596;9.960;2023-05-11T03:13:13;101255.84;;;13.19;nan
14343;BME280;7255;53.596;9.960;2023-05-11T03:15:41;101257.00;;;13.23;nan
14343;BME280;7255;53.596;9.960;2023-05-11T03:18:08;101254.91;;;13.25;nan
14343;BME280;7255;53.596;9.960;2023-05-11T03:20:38;101258.59;;;13.31;nan
14343;BME280;7255;53.596;9.960;2023-05-11T03:23:05;101255.47;;;13.45;nan
14343;BME280;7255;53.596;9.960;2023-05-11T03:25:32;101254.53;;;13.52;nan
14343;BME280;7255;53.596;9.960;2023-05-11T03:28:00;101259.84;;;13.28;nan
14343;BME280;7255;53.596;9.960;2023-05-11T03:30:29;101262.41;;;13.23;nan
14343;BME280;7255;53.596;9.960;2023-05-11T03:32:57;101257.37;;;13.26;nan
14343;BME280;7255;53.596;9.960;2023-05-11T03:35:24;101259.41;;;13.31;nan
14343;BME280;7255;53.596;9.960;2023-05-11T03:37:53;101261.47;;;13.29;nan
14343;BME280;7255;53.596;9.960;2023-05-11T03:40:22;101264.03;;;13.24;nan
14343;BME280;7255;53.596;9.960;2023-05-11T03:42:50;101250.53;;;13.12;nan
14343;BME280;7255;53.596;9.960;2023-05-11T03:45:19;101244.75;;;13.08;nan
14343;BME280;7255;53.596;9.960;2023-05-11T03:47:48;101248.97;;;13.04;nan
14343;BME280;7255;53.596;9.960;2023-05-11T03:50:16;101245.84;;;12.89;nan
14343;BME280;7255;53.596;9.960;2023-05-11T03:52:44;101245.84;;;12.89;nan
14343;BME280;7255;53.596;9.960;2023-05-11T03:55:11;101246.31;;;13.16;nan
14343;BME280;7255;53.596;9.960;2023-05-11T03:57:38;101251.69;;;13.16;nan
14343;BME280;7255;53.596;9.960;2023-05-11T04:00:06;101251.91;;;13.33;nan
14343;BME280;7255;53.596;9.960;2023-05-11T04:02:33;101255.09;;;13.12;nan
14343;BME280;7255;53.596;9.960;2023-05-11T04:05:05;101253.87;;;13.07;nan
14343;BME280;7255;53.596;9.960;2023-05-11T04:07:32;101249.06;;;13.28;nan
14343;BME280;7255;53.596;9.960;2023-05-11T04:09:58;101249.78;;;13.05;nan
14343;BME280;7255;53.596;9.960;2023-05-11T04:12:24;101240.00;;;12.92;nan
14343;BME280;7255;53.596;9.960;2023-05-11T04:14:50;101241.66;;;12.93;nan
14343;BME280;7255;53.596;9.960;2023-05-11T04:17:17;101242.09;;;12.90;nan
14343;BME280;7255;53.596;9.960;2023-05-11T04:19:43;101238.88;;;12.81;nan
14343;BME280;7255;53.596;9.960;2023-05-11T04:22:11;101239.50;;;12.65;nan
14343;BME280;7255;53.596;9.960;2023-05-11T04:24:37;101240.78;;;12.62;nan
14343;BME280;7255;53.596;9.960;2023-05-11T04:27:04;101243.47;;;12.81;nan
14343;BME280;7255;53.596;9.960;2023-05-11T04:29:30;101251.09;;;12.65;nan
14343;BME280;7255;53.596;9.960;2023-05-11T04:31:56;101245.72;;;12.65;nan
14343;BME280;7255;53.596;9.960;2023-05-11T04:34:23;101260.81;;;12.85;nan
14343;BME280;7255;53.596;9.960;2023-05-11T04:36:49;101246.19;;;12.93;nan
14343;BME280;7255;53.596;9.960;2023-05-11T04:39:17;101256.09;;;12.99;nan
14343;BME280;7255;53.596;9.960;2023-05-11T04:41:44;101260.66;;;13.28;nan
14343;BME280;7255;53.596;9.960;2023-05-11T04:44:10;101268.81;;;13.40;nan
14343;BME280;7255;53.596;9.960;2023-05-11T04:46:37;101267.81;;;13.23;nan
14343;BME280;7255;53.596;9.960;2023-05-11T04:49:03;101272.22;;;13.36;nan
14343;BME280;7255;53.596;9.960;2023-05-11T04:51:30;101264.88;;;13.24;nan
14343;BME280;7255;53.596;9.960;2023-05-11T04:53:56;101269.53;;;13.47;nan
14343;BME280;7255;53.596;9.960;2023-05-11T04:56:24;101275.50;;;13.38;nan
14343;BME280;7255;53.596;9.960;2023-05-11T04:58:50;101276.12;;;13.52;nan
14343;BME280;7255;53.596;9.960;2023-05-11T05:01:17;101276.31;;;13.38;nan
14343;BME280;7255;53.596;9.960;2023-05-11T05:03:47;101279.44;;;13.54;nan
14343;BME280;7255;53.596;9.960;2023-05-11T05:06:13;101277.22;;;13.62;nan
14343;BME280;7255;53.596;9.960;2023-05-11T05:08:39;101284.87;;;13.77;nan
14343;BME280;7255;53.596;9.960;2023-05-11T05:11:06;101282.09;;;13.42;nan
14343;BME280;7255;53.596;9.960;2023-05-11T05:13:33;101277.94;;;13.70;nan
14343;BME280;7255;53.596;9.960;2023-05-11T05:15:59;101290.25;;;13.77;nan
14343;BME280;7255;53.596;9.960;2023-05-11T05:18:26;101286.81;;;13.58;nan
14343;BME280;7255;53.596;9.960;2023-05-11T05:20:52;101283.06;;;13.29;nan
14343;BME280;7255;53.596;9.960;2023-05-11T05:23:18;101284.28;;;13.33;nan
14343;BME280;7255;53.596;9.960;2023-05-11T05:25:45;101287.66;;;13.59;nan
14343;BME280;7255;53.596;9.960;2023-05-11T05:28:11;101291.56;;;13.75;nan
14343;BME280;7255;53.596;9.960;2023-05-11T05:30:39;101284.53;;;13.74;nan
14343;BME280;7255;53.596;9.960;2023-05-11T05:33:05;101296.62;;;13.95;nan
14343;BME280;7255;53.596;9.960;2023-05-11T05:35:31;101293.94;;;13.83;nan
14343;BME280;7255;53.596;9.960;2023-05-11T05:37:58;101298.41;;;13.89;nan
14343;BME280;7255;53.596;9.960;2023-05-11T05:40:24;101295.94;;;13.88;nan
14343;BME280;7255;53.596;9.960;2023-05-11T05:42:50;101299.72;;;13.26;nan
14343;BME280;7255;53.596;9.960;2023-05-11T05:45:17;101292.16;;;13.35;nan
14343;BME280;7255;53.596;9.960;2023-05-11T05:47:45;101301.19;;;13.71;nan
14343;BME280;7255;53.596;9.960;2023-05-11T05:50:13;101308.37;;;13.89;nan
14343;BME280;7255;53.596;9.960;2023-05-11T05:52:39;101319.69;;;14.33;nan
14343;BME280;7255;53.596;9.960;2023-05-11T05:55:06;101314.16;;;14.39;nan
14343;BME280;7255;53.596;9.960;2023-05-11T05:57:32;101312.06;;;14.41;nan
14343;BME280;7255;53.596;9.960;2023-05-11T05:59:59;101317.69;;;14.52;nan
14343;BME280;7255;53.596;9.960;2023-05-11T06:02:25;101317.69;;;14.75;nan
14343;BME280;7255;53.596;9.960;2023-05-11T06:04:53;101326.03;;;14.86;nan
14343;BME280;7255;53.596;9.960;2023-05-11T06:07:19;101327.88;;;14.85;nan
14343;BME280;7255;53.596;9.960;2023-05-11T06:09:45;101323.38;;;15.02;nan
14343;BME280;7255;53.596;9.960;2023-05-11T06:12:12;101332.56;;;15.01;nan
14343;BME280;7255;53.596;9.960;2023-05-11T06:14:38;101338.19;;;15.12;nan
14343;BME280;7255;53.596;9.960;2023-05-11T06:17:05;101334.91;;;15.10;nan
14343;BME280;7255;53.596;9.960;2023-05-11T06:19:31;101334.28;;;15.19;nan
14343;BME280;7255;53.596;9.960;2023-05-11T06:21:59;101329.06;;;14.89;nan
14343;BME280;7255;53.596;9.960;2023-05-11T06:24:25;101333.25;;;15.09;nan
14343;BME280;7255;53.596;9.960;2023-05-11T06:26:52;101340.31;;;15.10;nan
14343;BME280;7255;53.596;9.960;2023-05-11T06:29:18;101333.88;;;14.99;nan
14343;BME280;7255;53.596;9.960;2023-05-11T06:31:46;101327.75;;;14.92;nan
14343;BME280;7255;53.596;9.960;2023-05-11T06:34:16;101341.53;;;14.90;nan
14343;BME280;7255;53.596;9.960;2023-05-11T06:36:43;101339.50;;;14.97;nan
14343;BME280;7255;53.596;9.960;2023-05-11T06:39:10;101329.81;;;15.13;nan
14343;BME280;7255;53.596;9.960;2023-05-11T06:41:37;101335.28;;;15.30;nan
14343;BME280;7255;53.596;9.960;2023-05-11T06:44:04;101341.41;;;15.54;nan
14343;BME280;7255;53.596;9.960;2023-05-11T06:46:30;101337.84;;;15.66;nan
14343;BME280;7255;53.596;9.960;2023-05-11T06:48:56;101338.78;;;15.43;nan
14343;BME280;7255;53.596;9.960;2023-05-11T06:51:23;101348.03;;;15.18;nan
14343;BME280;7255;53.596;9.960;2023-05-11T06:53:49;101337.94;;;15.42;nan
14343;BME280;7255;53.596;9.960;2023-05-11T06:56:17;101351.47;;;15.71;nan
14343;BME280;7255;53.596;9.960;2023-05-11T06:58:43;101348.22;;;15.86;nan
14343;BME280;7255;53.596;9.960;2023-05-11T07:01:10;101353.84;;;15.96;nan
14343;BME280;7255;53.596;9.960;2023-05-11T07:03:36;101351.56;;;16.05;nan
14343;BME280;7255;53.596;9.960;2023-05-11T07:06:03;101351.38;;;16.11;nan
14343;BME280;7255;53.596;9.960;2023-05-11T07:08:29;101353.50;;;16.09;nan
14343;BME280;7255;53.596;9.960;2023-05-11T07:10:55;101354.16;;;16.16;nan
14343;BME280;7255;53.596;9.960;2023-05-11T07:13:23;101361.25;;;16.17;nan
14343;BME280;7255;53.596;9.960;2023-05-11T07:15:50;101359.59;;;15.83;nan
14343;BME280;7255;53.596;9.960;2023-05-11T07:18:16;101357.28;;;15.91;nan
14343;BME280;7255;53.596;9.960;2023-05-11T07:20:42;101358.31;;;15.73;nan
14343;BME280;7255;53.596;9.960;2023-05-11T07:23:11;101360.50;;;15.88;nan
14343;BME280;7255;53.596;9.960;2023-05-11T07:25:37;101354.50;;;16.03;nan
14343;BME280;7255;53.596;9.960;2023-05-11T07:28:03;101365.50;;;16.13;nan
14343;BME280;7255;53.596;9.960;2023-05-11T07:30:31;101369.19;;;16.24;nan
14343;BME280;7255;53.596;9.960;2023-05-11T07:32:57;101359.91;;;16.20;nan
14343;BME280;7255;53.596;9.960;2023-05-11T07:35:23;101358.09;;;16.26;nan
14343;BME280;7255;53.596;9.960;2023-05-11T07:37:50;101362.72;;;16.08;nan
14343;BME280;7255;53.596;9.960;2023-05-11T07:40:16;101360.25;;;16.24;nan
14343;BME280;7255;53.596;9.960;2023-05-11T07:42:42;101360.34;;;16.29;nan
14343;BME280;7255;53.596;9.960;2023-05-11T07:45:09;101372.06;;;16.51;nan
14343;BME280;7255;53.596;9.960;2023-05-11T07:47:37;101371.88;;;16.58;nan
14343;BME280;7255;53.596;9.960;2023-05-11T07:50:04;101357.62;;;16.29;nan
14343;BME280;7255;53.596;9.960;2023-05-11T07:52:30;101364.66;;;16.30;nan
14343;BME280;7255;53.596;9.960;2023-05-11T07:54:56;101372.06;;;16.34;nan
14343;BME280;7255;53.596;9.960;2023-05-11T07:57:23;101369.09;;;16.53;nan
14343;BME280;7255;53.596;9.960;2023-05-11T07:59:49;101372.00;;;16.68;nan
14343;BME280;7255;53.596;9.960;2023-05-11T08:02:15;101372.34;;;16.89;nan
14343;BME280;7255;53.596;9.960;2023-05-11T08:04:45;101377.13;;;16.65;nan
14343;BME280;7255;53.596;9.960;2023-05-11T08:07:11;101383.75;;;16.74;nan
14343;BME280;7255;53.596;9.960;2023-05-11T08:09:38;101380.62;;;16.43;nan
14343;BME280;7255;53.596;9.960;2023-05-11T08:12:04;101370.91;;;16.47;nan
14343;BME280;7255;53.596;9.960;2023-05-11T08:14:31;101392.44;;;16.54;nan
14343;BME280;7255;53.596;9.960;2023-05-11T08:16:57;101379.25;;;16.80;nan
14343;BME280;7255;53.596;9.960;2023-05-11T08:19:24;101382.53;;;16.65;nan
14343;BME280;7255;53.596;9.960;2023-05-11T08:21:51;101385.13;;;16.54;nan
14343;BME280;7255;53.596;9.960;2023-05-11T08:24:18;101385.69;;;16.23;nan
14343;BME280;7255;53.596;9.960;2023-05-11T08:26:44;101382.75;;;16.41;nan
14343;BME280;7255;53.596;9.960;2023-05-11T08:29:11;101379.66;;;16.71;nan
14343;BME280;7255;53.596;9.960;2023-05-11T08:31:37;101389.28;;;16.96;nan
14343;BME280;7255;53.596;9.960;2023-05-11T08:34:05;101385.03;;;16.83;nan
14343;BME280;7255;53.596;9.960;2023-05-11T08:36:32;101392.72;;;16.91;nan
14343;BME280;7255;53.596;9.960;2023-05-11T08:39:00;101388.00;;;17.04;nan
14343;BME280;7255;53.596;9.960;2023-05-11T08:41:26;101393.75;;;17.29;nan
14343;BME280;7255;53.596;9.960;2023-05-11T08:43:54;101394.88;;;16.89;nan
14343;BME280;7255;53.596;9.960;2023-05-11T08:46:23;101396.78;;;17.11;nan
14343;BME280;7255;53.596;9.960;2023-05-11T08:48:51;101389.31;;;17.01;nan
14343;BME280;7255;53.596;9.960;2023-05-11T08:51:18;101390.97;;;17.24;nan
14343;BME280;7255;53.596;9.960;2023-05-11T08:53:44;101404.47;;;17.19;nan
14343;BME280;7255;53.596;9.960;2023-05-11T08:56:12;101394.88;;;17.34;nan
14343;BME280;7255;53.596;9.960;2023-05-11T08:58:41;101396.53;;;17.35;nan
14343;BME280;7255;53.596;9.960;2023-05-11T09:01:09;101395.87;;;16.83;nan
14343;BME280;7255;53.596;9.960;2023-05-11T09:03:38;101386.34;;;16.30;nan
14343;BME280;7255;53.596;9.960;2023-05-11T09:06:07;101387.00;;;15.86;nan
14343;BME280;7255;53.596;9.960;2023-05-11T09:08:34;101387.97;;;15.97;nan
14343;BME280;7255;53.596;9.960;2023-05-11T09:11:02;101391.78;;;16.30;nan
14343;BME280;7255;53.596;9.960;2023-05-11T09:13:30;101402.47;;;16.53;nan
14343;BME280;7255;53.596;9.960;2023-05-11T09:15:57;101391.47;;;16.43;nan
14343;BME280;7255;53.596;9.960;2023-05-11T09:18:23;101386.22;;;16.20;nan
14343;BME280;7255;53.596;9.960;2023-05-11T09:20:49;101395.06;;;16.32;nan
14343;BME280;7255;53.596;9.960;2023-05-11T09:23:16;101393.44;;;16.31;nan
14343;BME280;7255;53.596;9.960;2023-05-11T09:25:43;101391.78;;;16.13;nan
14343;BME280;7255;53.596;9.960;2023-05-11T09:28:10;101391.97;;;16.23;nan
14343;BME280;7255;53.596;9.960;2023-05-11T09:30:38;101399.34;;;16.28;nan
14343;BME280;7255;53.596;9.960;2023-05-11T09:33:04;101390.16;;;16.12;nan
14343;BME280;7255;53.596;9.960;2023-05-11T09:35:33;101399.16;;;16.01;nan
14343;BME280;7255;53.596;9.960;2023-05-11T09:38:02;101392.75;;;15.90;nan
14343;BME280;7255;53.596;9.960;2023-05-11T09:40:30;101395.87;;;15.98;nan
14343;BME280;7255;53.596;9.960;2023-05-11T09:42:58;101395.87;;;15.98;nan
14343;BME280;7255;53.596;9.960;2023-05-11T09:45:39;101401.62;;;16.02;nan
14343;BME280;7255;53.596;9.960;2023-05-11T09:48:06;101403.13;;;16.10;nan
14343;BME280;7255;53.596;9.960;2023-05-11T09:50:38;101405.91;;;16.15;nan
14343;BME280;7255;53.596;9.960;2023-05-11T09:53:05;101397.53;;;16.16;nan
14343;BME280;7255;53.596;9.960;2023-05-11T09:55:31;101392.78;;;16.24;nan
14343;BME280;7255;53.596;9.960;2023-05-11T09:57:58;101403.44;;;16.13;nan
14343;BME280;7255;53.596;9.960;2023-05-11T10:00:25;101408.19;;;16.06;nan
14343;BME280;7255;53.596;9.960;2023-05-11T10:03:00;101397.88;;;16.20;nan
14343;BME280;7255;53.596;9.960;2023-05-11T10:05:27;101399.00;;;16.07;nan
14343;BME280;7255;53.596;9.960;2023-05-11T10:07:55;101413.94;;;15.93;nan
14343;BME280;7255;53.596;9.960;2023-05-11T10:10:23;101412.47;;;16.02;nan
14343;BME280;7255;53.596;9.960;2023-05-11T10:12:50;101414.22;;;16.25;nan
14343;BME280;7255;53.596;9.960;2023-05-11T10:15:18;101400.97;;;15.95;nan
14343;BME280;7255;53.596;9.960;2023-05-11T10:17:45;101392.25;;;15.93;nan
14343;BME280;7255;53.596;9.960;2023-05-11T10:20:14;101403.13;;;16.10;nan
14343;BME280;7255;53.596;9.960;2023-05-11T10:22:41;101404.59;;;16.51;nan
14343;BME280;7255;53.596;9.960;2023-05-11T10:25:08;101403.13;;;16.61;nan
14343;BME280;7255;53.596;9.960;2023-05-11T10:27:35;101398.50;;;16.61;nan
14343;BME280;7255;53.596;9.960;2023-05-11T10:30:04;101395.87;;;16.66;nan
14343;BME280;7255;53.596;9.960;2023-05-11T10:32:33;101401.28;;;16.66;nan
14343;BME280;7255;53.596;9.960;2023-05-11T10:35:02;101397.84;;;16.71;nan
14343;BME280;7255;53.596;9.960;2023-05-11T10:37:30;101401.62;;;16.70;nan
14343;BME280;7255;53.596;9.960;2023-05-11T10:39:57;101397.84;;;17.32;nan
14343;BME280;7255;53.596;9.960;2023-05-11T10:42:34;101400.09;;;17.62;nan
14343;BME280;7255;53.596;9.960;2023-05-11T10:45:15;101392.87;;;18.00;nan
14343;BME280;7255;53.596;9.960;2023-05-11T10:48:23;101392.81;;;18.27;nan
14343;BME280;7255;53.596;9.960;2023-05-11T10:51:19;101388.47;;;17.94;nan
14343;BME280;7255;53.596;9.960;2023-05-11T10:54:13;101397.16;;;18.23;nan
14343;BME280;7255;53.596;9.960;2023-05-11T10:57:07;101401.00;;;17.95;nan
14343;BME280;7255;53.596;9.960;2023-05-11T10:59:48;101412.44;;;17.48;nan
14343;BME280;7255;53.596;9.960;2023-05-11T11:02:18;101406.00;;;17.10;nan
14343;BME280;7255;53.596;9.960;2023-05-11T11:04:45;101389.69;;;17.54;nan
14343;BME280;7255;53.596;9.960;2023-05-11T11:07:12;101397.59;;;17.83;nan
14343;BME280;7255;53.596;9.960;2023-05-11T11:09:54;101396.47;;;17.79;nan
14343;BME280;7255;53.596;9.960;2023-05-11T11:12:22;101389.87;;;17.75;nan
14343;BME280;7255;53.596;9.960;2023-05-11T11:14:55;101391.97;;;17.89;nan
14343;BME280;7255;53.596;9.960;2023-05-11T11:17:22;101392.78;;;17.90;nan
14343;BME280;7255;53.596;9.960;2023-05-11T11:19:51;101402.28;;;17.65;nan
14343;BME280;7255;53.596;9.960;2023-05-11T11:22:43;101387.62;;;17.66;nan
14343;BME280;7255;53.596;9.960;2023-05-11T11:25:13;101391.12;;;17.89;nan
14343;BME280;7255;53.596;9.960;2023-05-11T11:27:54;101403.34;;;18.14;nan
14343;BME280;7255;53.596;9.960;2023-05-11T11:30:21;101401.69;;;18.13;nan
14343;BME280;7255;53.596;9.960;2023-05-11T11:32:50;101402.00;;;17.89;nan
14343;BME280;7255;53.596;9.960;2023-05-11T11:35:45;101391.16;;;17.18;nan
14343;BME280;7255;53.596;9.960;2023-05-11T11:38:12;101399.00;;;17.63;nan
14343;BME280;7255;53.596;9.960;2023-05-11T11:40:41;101406.09;;;17.64;nan
14343;BME280;7255;53.596;9.960;2023-05-11T11:43:09;101407.63;;;18.09;nan
14343;BME280;7255;53.596;9.960;2023-05-11T11:45:37;101413.03;;;18.37;nan
14343;BME280;7255;53.596;9.960;2023-05-11T11:48:12;101402.91;;;18.27;nan
14343;BME280;7255;53.596;9.960;2023-05-11T11:50:40;101409.06;;;18.17;nan
14343;BME280;7255;53.596;9.960;2023-05-11T11:56:36;101415.78;;;18.79;nan
14343;BME280;7255;53.596;9.960;2023-05-11T11:59:02;101403.34;;;18.89;nan
14343;BME280;7255;53.596;9.960;2023-05-11T12:01:36;101413.53;;;19.19;nan
14343;BME280;7255;53.596;9.960;2023-05-11T12:04:30;101402.44;;;19.36;nan
14343;BME280;7255;53.596;9.960;2023-05-11T12:07:02;101409.06;;;19.60;nan
14343;BME280;7255;53.596;9.960;2023-05-11T12:09:28;101411.84;;;19.76;nan
14343;BME280;7255;53.596;9.960;2023-05-11T12:11:57;101405.22;;;19.51;nan
14343;BME280;7255;53.596;9.960;2023-05-11T12:14:23;101403.75;;;18.75;nan
14343;BME280;7255;53.596;9.960;2023-05-11T12:17:00;101405.72;;;18.42;nan
14343;BME280;7255;53.596;9.960;2023-05-11T12:19:27;101402.38;;;18.67;nan
14343;BME280;7255;53.596;9.960;2023-05-11T12:21:55;101407.03;;;18.77;nan
14343;BME280;7255;53.596;9.960;2023-05-11T12:24:21;101404.22;;;18.62;nan
14343;BME280;7255;53.596;9.960;2023-05-11T12:26:47;101396.28;;;18.50;nan
14343;BME280;7255;53.596;9.960;2023-05-11T12:29:15;101399.78;;;18.83;nan
14343;BME280;7255;53.596;9.960;2023-05-11T12:31:43;101393.13;;;18.31;nan
14343;BME280;7255;53.596;9.960;2023-05-11T12:34:12;101396.56;;;18.54;nan
14343;BME280;7255;53.596;9.960;2023-05-11T12:36:39;101400.50;;;18.73;nan
14343;BME280;7255;53.596;9.960;2023-05-11T12:39:05;101402.19;;;19.42;nan
14343;BME280;7255;53.596;9.960;2023-05-11T12:41:32;101398.25;;;19.91;nan
14343;BME280;7255;53.596;9.960;2023-05-11T12:43:59;101400.81;;;19.45;nan
14343;BME280;7255;53.596;9.960;2023-05-11T12:46:27;101390.13;;;19.18;nan
14343;BME280;7255;53.596;9.960;2023-05-11T12:48:53;101394.56;;;19.34;nan
14343;BME280;7255;53.596;9.960;2023-05-11T12:51:43;101393.00;;;19.64;nan
14343;BME280;7255;53.596;9.960;2023-05-11T12:54:09;101397.00;;;19.36;nan
14343;BME280;7255;53.596;9.960;2023-05-11T12:56:44;101391.62;;;19.56;nan
14343;BME280;7255;53.596;9.960;2023-05-11T12:59:34;101395.53;;;20.07;nan
14343;BME280;7255;53.596;9.960;2023-05-11T13:02:07;101392.22;;;19.94;nan
14343;BME280;7255;53.596;9.960;2023-05-11T13:04:35;101386.16;;;19.56;nan
14343;BME280;7255;53.596;9.960;2023-05-11T13:07:01;101390.03;;;19.76;nan
14343;BME280;7255;53.596;9.960;2023-05-11T13:09:27;101377.78;;;19.78;nan
14343;BME280;7255;53.596;9.960;2023-05-11T13:12:11;101386.25;;;20.28;nan
14343;BME280;7255;53.596;9.960;2023-05-11T13:14:38;101388.41;;;20.36;nan
14343;BME280;7255;53.596;9.960;2023-05-11T13:17:04;101386.50;;;20.52;nan
14343;BME280;7255;53.596;9.960;2023-05-11T13:19:32;101384.06;;;20.61;nan
14343;BME280;7255;53.596;9.960;2023-05-11T13:21:59;101379.09;;;20.58;nan
14343;BME280;7255;53.596;9.960;2023-05-11T13:24:25;101382.37;;;20.60;nan
14343;BME280;7255;53.596;9.960;2023-05-11T13:26:52;101377.22;;;20.48;nan
14343;BME280;7255;53.596;9.960;2023-05-11T13:29:19;101379.97;;;20.07;nan
14343;BME280;7255;53.596;9.960;2023-05-11T13:31:46;101370.06;;;19.50;nan
14343;BME280;7255;53.596;9.960;2023-05-11T13:34:13;101368.25;;;19.86;nan